createdAt,value
2023-03-13T00:00:57.758Z,3.28
2023-03-13T00:03:24.606Z,3.50
2023-03-13T00:05:56.309Z,4.35
2023-03-13T00:08:23.297Z,3.22
2023-03-13T00:10:50.045Z,4.15
2023-03-13T00:13:16.848Z,4.07
2023-03-13T00:15:43.633Z,2.75
2023-03-13T00:18:11.729Z,3.85
2023-03-13T00:20:38.590Z,4.37
2023-03-13T00:23:05.937Z,3.47
2023-03-13T00:25:32.673Z,3.42
2023-03-13T00:27:59.499Z,3.38
2023-03-13T00:30:26.283Z,3.13
2023-03-13T00:32:53.152Z,3.00
2023-03-13T00:35:22.725Z,3.58
2023-03-13T00:37:49.493Z,3.60
2023-03-13T00:40:16.356Z,3.65
2023-03-13T00:42:43.212Z,4.32
2023-03-13T00:45:10.778Z,3.15
2023-03-13T00:47:37.643Z,2.25
2023-03-13T00:50:05.480Z,2.45
2023-03-13T00:52:33.685Z,3.42
2023-03-13T00:55:00.465Z,3.58
2023-03-13T00:57:27.191Z,3.47
2023-03-13T00:59:53.890Z,3.08
2023-03-13T01:02:20.804Z,3.50
2023-03-13T01:04:48.640Z,3.17
2023-03-13T01:07:15.413Z,3.88
2023-03-13T01:09:43.503Z,4.32
2023-03-13T01:12:10.264Z,2.90
2023-03-13T01:14:37.140Z,4.25
2023-03-13T01:17:04.021Z,3.60
2023-03-13T01:19:30.732Z,4.45
2023-03-13T01:21:57.781Z,3.30
2023-03-13T01:24:24.582Z,4.05
2023-03-13T01:26:52.714Z,3.92
2023-03-13T01:29:19.462Z,5.93
2023-03-13T01:31:46.198Z,3.80
2023-03-13T01:34:12.971Z,4.15
2023-03-13T01:36:39.785Z,4.18
2023-03-13T01:39:06.814Z,4.50
2023-03-13T01:41:33.572Z,5.40
2023-03-13T01:44:04.301Z,4.78
2023-03-13T01:46:31.233Z,5.47
2023-03-13T01:49:02.425Z,4.80
2023-03-13T01:51:31.752Z,4.20
2023-03-13T01:54:04.574Z,5.35
2023-03-13T01:56:37.505Z,4.85
2023-03-13T01:59:10.544Z,4.93
2023-03-13T02:01:39.384Z,4.93
2023-03-13T02:04:06.860Z,4.05
2023-03-13T02:06:37.601Z,4.35
2023-03-13T02:09:10.667Z,4.53
2023-03-13T02:11:47.583Z,4.90
2023-03-13T02:14:17.159Z,5.18
2023-03-13T02:16:45.240Z,3.70
2023-03-13T02:19:18.312Z,4.17
2023-03-13T02:21:52.004Z,4.18
2023-03-13T02:24:29.405Z,4.03
2023-03-13T02:26:59.827Z,2.85
2023-03-13T02:29:27.630Z,4.07
2023-03-13T02:31:54.452Z,3.50
2023-03-13T02:34:30.589Z,3.58
2023-03-13T02:37:00.263Z,4.13
2023-03-13T02:39:28.287Z,4.20
2023-03-13T02:41:55.677Z,4.07
2023-03-13T02:44:24.221Z,4.32
2023-03-13T02:46:52.765Z,3.88
2023-03-13T02:49:22.509Z,4.32
2023-03-13T02:51:49.797Z,2.17
2023-03-13T02:54:20.950Z,3.60
2023-03-13T02:56:52.744Z,4.15
2023-03-13T02:59:19.521Z,4.40
2023-03-13T03:01:48.077Z,3.65
2023-03-13T03:04:14.832Z,3.28
2023-03-13T03:06:41.886Z,4.50
2023-03-13T03:09:08.684Z,5.45
2023-03-13T03:11:35.426Z,6.03
2023-03-13T03:14:02.396Z,5.05
2023-03-13T03:16:29.412Z,5.03
2023-03-13T03:18:57.649Z,5.60
2023-03-13T03:21:24.554Z,5.18
2023-03-13T03:23:51.394Z,5.05
2023-03-13T03:26:19.834Z,5.00
2023-03-13T03:28:46.683Z,4.38
2023-03-13T03:31:15.434Z,5.45
2023-03-13T03:33:42.812Z,4.72
2023-03-13T03:36:12.591Z,5.20
2023-03-13T03:38:40.013Z,4.07
2023-03-13T03:41:07.118Z,6.07
2023-03-13T03:43:34.528Z,6.05
2023-03-13T03:46:01.753Z,4.43
2023-03-13T03:48:28.880Z,5.15
2023-03-13T03:50:55.737Z,4.75
2023-03-13T03:53:24.025Z,6.72
2023-03-13T03:55:50.762Z,5.00
2023-03-13T03:58:17.660Z,3.83
2023-03-13T04:00:45.015Z,5.18
2023-03-13T04:03:12.369Z,6.05
2023-03-13T04:05:39.785Z,3.17
2023-03-13T04:08:07.443Z,4.05
2023-03-13T04:10:35.790Z,5.88
2023-03-13T04:13:02.569Z,4.82
2023-03-13T04:15:29.622Z,6.18
2023-03-13T04:17:56.373Z,6.40
2023-03-13T04:20:23.285Z,5.22
2023-03-13T04:22:50.372Z,5.65
2023-03-13T04:25:17.502Z,5.93
2023-03-13T04:27:45.782Z,6.07
2023-03-13T04:30:13.057Z,5.23
2023-03-13T04:32:40.279Z,5.78
2023-03-13T04:35:07.863Z,6.03
2023-03-13T04:37:35.017Z,5.72
2023-03-13T04:40:01.917Z,5.00
2023-03-13T04:42:28.722Z,5.13
2023-03-13T04:44:56.843Z,4.55
2023-03-13T04:47:23.930Z,6.13
2023-03-13T04:49:50.812Z,5.07
2023-03-13T04:52:17.554Z,4.90
2023-03-13T04:54:44.285Z,6.45
2023-03-13T04:57:11.495Z,4.53
2023-03-13T04:59:38.267Z,5.88
2023-03-13T05:02:06.415Z,4.95
2023-03-13T05:04:33.156Z,5.00
2023-03-13T05:07:00.095Z,5.72
2023-03-13T05:09:27.074Z,5.25
2023-03-13T05:11:53.901Z,6.15
2023-03-13T05:14:20.631Z,5.15
2023-03-13T05:16:47.626Z,3.33
2023-03-13T05:19:15.716Z,4.32
2023-03-13T05:21:42.542Z,3.60
2023-03-13T05:24:09.372Z,4.47
2023-03-13T05:26:36.480Z,4.78
2023-03-13T05:29:03.309Z,4.40
2023-03-13T05:31:30.156Z,4.00
2023-03-13T05:33:57.024Z,4.55
2023-03-13T05:36:25.254Z,3.78
2023-03-13T05:38:52.151Z,3.38
2023-03-13T05:41:18.906Z,3.08
2023-03-13T05:43:45.669Z,4.00
2023-03-13T05:46:12.573Z,3.67
2023-03-13T05:48:39.333Z,3.30
2023-03-13T05:51:06.293Z,3.97
2023-03-13T05:53:34.458Z,2.78
2023-03-13T05:56:01.193Z,4.00
2023-03-13T05:58:28.043Z,3.63
2023-03-13T06:00:55.936Z,3.47
2023-03-13T06:03:22.718Z,3.35
2023-03-13T06:05:49.466Z,2.92
2023-03-13T06:08:16.186Z,4.00
2023-03-13T06:10:44.283Z,3.33
2023-03-13T06:13:19.836Z,2.83
2023-03-13T06:15:51.476Z,2.95
2023-03-13T06:18:19.536Z,3.88
2023-03-13T06:20:46.248Z,2.50
2023-03-13T06:23:13.680Z,3.60
2023-03-13T06:25:40.493Z,2.88
2023-03-13T06:28:10.616Z,3.15
2023-03-13T06:30:37.372Z,3.67
2023-03-13T06:33:04.366Z,2.90
2023-03-13T06:35:31.284Z,2.50
2023-03-13T06:37:58.058Z,2.90
2023-03-13T06:40:24.885Z,2.58
2023-03-13T06:42:51.662Z,2.30
2023-03-13T06:45:19.776Z,3.15
2023-03-13T06:47:46.509Z,2.53
2023-03-13T06:50:13.279Z,2.25
2023-03-13T06:52:43.993Z,2.10
2023-03-13T06:55:12.079Z,2.50
2023-03-13T06:57:38.837Z,2.60
2023-03-13T07:00:06.970Z,2.40
2023-03-13T07:02:35.124Z,2.13
2023-03-13T07:05:02.108Z,2.65
2023-03-13T07:07:32.130Z,2.63
2023-03-13T07:09:59.224Z,2.67
2023-03-13T07:12:26.020Z,2.30
2023-03-13T07:14:52.826Z,1.77
2023-03-13T07:17:19.691Z,2.72
2023-03-13T07:19:47.845Z,2.20
2023-03-13T07:22:14.638Z,2.70
2023-03-13T07:24:41.432Z,2.58
2023-03-13T07:27:08.537Z,2.78
2023-03-13T07:29:35.290Z,2.00
2023-03-13T07:32:02.122Z,2.40
2023-03-13T07:34:29.084Z,2.60
2023-03-13T07:36:57.424Z,2.13
2023-03-13T07:39:24.327Z,2.25
2023-03-13T07:41:51.071Z,2.80
2023-03-13T07:44:17.849Z,2.35
2023-03-13T07:46:44.601Z,2.22
2023-03-13T07:49:11.334Z,2.75
2023-03-13T07:51:43.926Z,2.42
2023-03-13T07:54:12.571Z,2.60
2023-03-13T07:56:40.001Z,2.05
2023-03-13T07:59:06.937Z,2.28
2023-03-13T08:01:33.972Z,2.15
2023-03-13T08:04:01.092Z,2.33
2023-03-13T08:06:32.593Z,2.70
2023-03-13T08:09:00.525Z,2.28
2023-03-13T08:11:29.066Z,2.55
2023-03-13T08:13:57.333Z,2.35
2023-03-13T08:16:25.633Z,2.30
2023-03-13T08:18:55.177Z,3.42
2023-03-13T08:21:24.622Z,2.65
2023-03-13T08:23:53.557Z,1.67
2023-03-13T08:28:53.893Z,2.33
2023-03-13T08:31:22.804Z,2.45
2023-03-13T08:36:18.542Z,2.53
2023-03-13T08:38:46.589Z,2.17
2023-03-13T08:41:14.266Z,2.22
2023-03-13T08:43:41.185Z,1.88
2023-03-13T08:46:09.547Z,2.30
2023-03-13T08:48:36.427Z,2.03
2023-03-13T08:51:05.218Z,2.15
2023-03-13T08:53:33.650Z,2.20
2023-03-13T08:56:00.713Z,2.45
2023-03-13T08:58:28.027Z,2.30
2023-03-13T09:00:55.196Z,1.90
2023-03-13T09:03:23.335Z,1.70
2023-03-13T09:05:55.999Z,2.20
2023-03-13T09:08:23.520Z,1.73
2023-03-13T09:10:55.805Z,1.67
2023-03-13T09:13:22.522Z,1.20
2023-03-13T09:15:54.589Z,1.55
2023-03-13T09:18:23.115Z,2.03
2023-03-13T09:20:50.101Z,1.85
2023-03-13T09:23:17.021Z,1.48
2023-03-13T09:25:43.837Z,1.75
2023-03-13T09:28:10.776Z,1.70
2023-03-13T09:30:37.637Z,2.08
2023-03-13T09:33:04.574Z,1.38
2023-03-13T09:35:32.733Z,1.88
2023-03-13T09:37:59.732Z,1.77
2023-03-13T09:40:28.366Z,1.83
2023-03-13T09:42:57.821Z,1.83
2023-03-13T09:45:31.573Z,2.10
2023-03-13T09:48:02.381Z,1.70
2023-03-13T09:50:34.710Z,1.83
2023-03-13T09:53:11.243Z,1.48
2023-03-13T09:55:43.881Z,1.70
2023-03-13T09:58:14.313Z,1.98
2023-03-13T10:00:43.464Z,1.88
2023-03-13T10:03:16.242Z,2.05
2023-03-13T10:05:48.489Z,1.48
2023-03-13T10:08:17.593Z,1.30
2023-03-13T10:10:48.705Z,1.27
2023-03-13T10:13:19.751Z,1.90
2023-03-13T10:15:51.923Z,1.30
2023-03-13T10:18:20.784Z,2.72
2023-03-13T10:25:48.697Z,1.55
2023-03-13T10:28:17.165Z,1.85
2023-03-13T10:30:48.227Z,1.45
2023-03-13T10:33:25.342Z,1.90
2023-03-13T10:36:11.540Z,1.75
2023-03-13T10:38:48.776Z,1.55
2023-03-13T10:41:25.214Z,1.45
2023-03-13T10:43:53.673Z,1.70
2023-03-13T10:46:26.241Z,1.38
2023-03-13T10:48:54.707Z,1.50
2023-03-13T10:51:24.437Z,1.25
2023-03-13T10:53:51.329Z,1.38
2023-03-13T10:56:25.504Z,1.80
2023-03-13T10:58:53.178Z,1.20
2023-03-13T11:01:23.532Z,1.33
2023-03-13T11:03:53.322Z,1.40
2023-03-13T11:06:27.385Z,1.60
2023-03-13T11:09:04.084Z,1.33
2023-03-13T11:11:42.952Z,1.30
2023-03-13T11:14:13.691Z,1.35
2023-03-13T11:16:48.095Z,1.05
2023-03-13T11:19:53.581Z,1.02
2023-03-13T11:22:30.055Z,1.50
2023-03-13T11:25:06.838Z,1.40
2023-03-13T11:27:37.733Z,1.00
2023-03-13T11:30:21.972Z,1.23
2023-03-13T11:32:53.862Z,1.52
2023-03-13T11:35:33.934Z,1.95
2023-03-13T11:38:09.388Z,1.55
2023-03-13T11:40:43.850Z,1.05
2023-03-13T11:43:34.735Z,1.55
2023-03-13T11:46:28.069Z,1.33
2023-03-13T11:49:32.631Z,1.25
2023-03-13T11:52:12.640Z,1.73
2023-03-13T11:55:03.227Z,1.00
2023-03-13T11:57:33.937Z,1.65
2023-03-13T12:00:16.300Z,1.23
2023-03-13T12:02:49.225Z,1.50
2023-03-13T12:05:19.024Z,1.55
2023-03-13T12:07:52.531Z,1.52
2023-03-13T12:10:28.716Z,0.80
2023-03-13T12:13:01.386Z,1.52
2023-03-13T12:15:31.143Z,1.50
2023-03-13T12:18:02.594Z,1.48
2023-03-13T12:20:38.837Z,1.35
2023-03-13T12:23:17.337Z,1.20
2023-03-13T12:25:51.378Z,1.20
2023-03-13T12:28:29.830Z,1.40
2023-03-13T12:31:13.991Z,1.13
2023-03-13T12:33:46.329Z,1.40
2023-03-13T12:36:17.273Z,1.20
2023-03-13T12:38:50.116Z,1.08
2023-03-13T12:41:25.736Z,1.20
2023-03-13T12:44:07.619Z,0.90
2023-03-13T12:46:38.901Z,0.90
2023-03-13T12:49:34.000Z,1.00
2023-03-13T12:52:15.695Z,0.95
2023-03-13T12:55:09.846Z,1.10
2023-03-13T12:58:12.513Z,1.30
2023-03-13T13:00:42.360Z,1.00
2023-03-13T13:03:20.562Z,1.15
2023-03-13T13:06:04.777Z,1.10
2023-03-13T13:08:39.209Z,0.82
2023-03-13T13:11:47.364Z,0.90
2023-03-13T13:14:54.046Z,1.15
2023-03-13T13:17:28.702Z,1.70
2023-03-13T13:19:56.166Z,1.00
2023-03-13T13:22:50.032Z,1.40
2023-03-13T13:25:32.320Z,0.93
2023-03-13T13:28:25.452Z,1.10
2023-03-13T13:30:55.808Z,1.30
2023-03-13T13:33:38.747Z,1.65
2023-03-13T13:36:28.398Z,1.17
2023-03-13T13:38:56.321Z,1.02
2023-03-13T13:41:34.949Z,1.47
2023-03-13T13:46:47.391Z,1.15
2023-03-13T13:49:18.078Z,1.30
2023-03-13T13:52:20.133Z,1.17
2023-03-13T13:54:55.938Z,1.20
2023-03-13T13:57:25.324Z,1.10
2023-03-13T13:59:54.464Z,1.20
2023-03-13T14:02:24.350Z,1.00
2023-03-13T14:05:18.023Z,1.35
2023-03-13T14:07:54.046Z,1.20
2023-03-13T14:10:34.993Z,1.50
2023-03-13T14:13:03.239Z,1.85
2023-03-13T14:15:31.674Z,1.88
2023-03-13T14:18:00.593Z,1.70
2023-03-13T14:20:31.775Z,1.45
2023-03-13T14:23:03.227Z,1.65
2023-03-13T14:25:42.303Z,2.40
2023-03-13T14:28:17.614Z,1.73
2023-03-13T14:30:46.468Z,1.80
2023-03-13T14:35:42.095Z,1.90
2023-03-13T14:38:16.821Z,1.95
2023-03-13T14:40:43.685Z,2.28
2023-03-13T14:43:21.213Z,2.55
2023-03-13T14:45:49.409Z,1.58
2023-03-13T14:48:21.374Z,1.70
2023-03-13T14:50:59.642Z,1.95
2023-03-13T14:53:35.666Z,1.92
2023-03-13T14:56:14.256Z,1.70
2023-03-13T14:58:41.254Z,1.75
2023-03-13T15:01:23.290Z,1.70
2023-03-13T15:03:50.151Z,1.88
2023-03-13T15:06:21.491Z,3.22
2023-03-13T15:08:50.400Z,1.65
2023-03-13T15:11:29.228Z,1.92
2023-03-13T15:13:56.781Z,2.10
2023-03-13T15:16:25.131Z,2.05
2023-03-13T15:18:52.998Z,1.67
2023-03-13T15:21:32.860Z,2.00
2023-03-13T15:24:01.942Z,1.83
2023-03-13T15:26:29.624Z,1.67
2023-03-13T15:28:56.526Z,2.40
2023-03-13T15:31:27.827Z,2.03
2023-03-13T15:33:57.542Z,1.58
2023-03-13T15:36:24.624Z,1.55
2023-03-13T15:38:52.752Z,1.83
2023-03-13T15:41:19.896Z,1.60
2023-03-13T15:43:47.319Z,2.13
2023-03-13T15:46:14.460Z,1.48
2023-03-13T15:48:41.409Z,1.70
2023-03-13T15:51:11.889Z,1.67
2023-03-13T15:53:38.634Z,2.15
2023-03-13T15:56:15.395Z,1.83
2023-03-13T15:58:42.705Z,1.70
2023-03-13T16:01:13.219Z,1.50
2023-03-13T16:03:41.081Z,1.92
2023-03-13T16:06:16.847Z,2.40
2023-03-13T16:08:44.516Z,1.65
2023-03-13T16:11:15.537Z,2.25
2023-03-13T16:13:42.816Z,2.40
2023-03-13T16:16:19.567Z,1.95
2023-03-13T16:18:47.375Z,2.35
2023-03-13T16:21:18.304Z,2.40
2023-03-13T16:23:45.079Z,2.65
2023-03-13T16:26:16.692Z,2.40
2023-03-13T16:28:43.817Z,2.55
2023-03-13T16:31:17.432Z,2.38
2023-03-13T16:33:44.306Z,2.20
2023-03-13T16:36:14.781Z,2.80
2023-03-13T16:38:41.529Z,3.20
2023-03-13T16:41:09.909Z,2.92
2023-03-13T16:43:38.074Z,3.28
2023-03-13T16:46:09.581Z,2.67
2023-03-13T16:48:36.308Z,2.63
2023-03-13T16:51:04.719Z,2.75
2023-03-13T16:53:33.103Z,3.25
2023-03-13T16:55:59.869Z,3.08
2023-03-13T16:58:26.597Z,2.95
2023-03-13T17:03:41.421Z,2.90
2023-03-13T17:06:17.466Z,2.80
2023-03-13T17:08:44.471Z,3.05
2023-03-13T17:11:15.976Z,2.85
2023-03-13T17:13:45.959Z,3.30
2023-03-13T17:16:19.100Z,2.70
2023-03-13T17:18:47.871Z,2.40
2023-03-13T17:21:17.107Z,3.05
2023-03-13T17:23:44.614Z,3.08
2023-03-13T17:26:22.013Z,3.45
2023-03-13T17:28:50.244Z,2.90
2023-03-13T17:31:19.161Z,2.90
2023-03-13T17:33:46.388Z,4.03
2023-03-13T17:36:18.834Z,3.92
2023-03-13T17:38:46.659Z,4.65
2023-03-13T17:41:19.372Z,2.80
2023-03-13T17:43:46.534Z,3.28
2023-03-13T17:46:16.818Z,3.28
2023-03-13T17:48:45.730Z,3.25
2023-03-13T17:51:18.153Z,2.35
2023-03-13T17:53:45.260Z,3.90
2023-03-13T17:56:17.021Z,3.65
2023-03-13T17:58:44.487Z,3.00
2023-03-13T18:01:12.994Z,3.53
2023-03-13T18:03:40.189Z,3.95
2023-03-13T18:06:16.160Z,2.95
2023-03-13T18:08:42.890Z,3.05
2023-03-13T18:11:10.118Z,3.25
2023-03-13T18:13:37.051Z,3.78
2023-03-13T18:16:15.941Z,3.05
2023-03-13T18:18:42.798Z,3.73
2023-03-13T18:21:10.968Z,4.30
2023-03-13T18:23:37.676Z,3.30
2023-03-13T18:26:19.250Z,3.97
2023-03-13T18:28:45.973Z,3.20
2023-03-13T18:31:12.878Z,4.47
2023-03-13T18:33:41.673Z,3.55
2023-03-13T18:38:40.946Z,3.75
2023-03-13T18:41:09.462Z,3.78
2023-03-13T18:43:36.944Z,4.38
2023-03-13T18:46:04.451Z,3.13
2023-03-13T18:48:31.260Z,4.00
2023-03-13T18:50:58.037Z,3.42
2023-03-13T18:53:27.185Z,3.78
2023-03-13T18:58:20.736Z,2.78
2023-03-13T19:00:50.548Z,3.10
2023-03-13T19:03:17.422Z,3.25
2023-03-13T19:05:44.192Z,3.17
2023-03-13T19:08:11.155Z,3.63
2023-03-13T19:10:39.280Z,4.38
2023-03-13T19:13:06.018Z,3.08
2023-03-13T19:15:32.944Z,3.85
2023-03-13T19:18:02.595Z,3.88
2023-03-13T19:20:30.203Z,4.75
2023-03-13T19:22:56.929Z,5.40
2023-03-13T19:25:23.702Z,3.63
2023-03-13T19:27:51.864Z,3.83
2023-03-13T19:30:20.919Z,3.20
2023-03-13T19:32:47.857Z,3.50
2023-03-13T19:35:15.138Z,3.75
2023-03-13T19:37:42.087Z,3.88
2023-03-13T19:40:17.570Z,3.15
2023-03-13T19:42:44.545Z,3.13
2023-03-13T19:45:13.261Z,3.25
2023-03-13T19:47:40.035Z,3.03
2023-03-13T19:50:13.435Z,3.50
2023-03-13T19:54:23.118Z,4.18
2023-03-13T19:56:50.166Z,4.15
2023-03-13T19:59:18.934Z,3.65
2023-03-13T20:01:46.107Z,3.22
2023-03-13T20:04:13.636Z,3.83
2023-03-13T20:06:41.857Z,4.20
2023-03-13T20:09:10.681Z,3.72
2023-03-13T20:11:39.100Z,3.47
2023-03-13T20:14:06.347Z,3.70
2023-03-13T20:16:35.077Z,3.58
2023-03-13T20:21:30.244Z,3.80
2023-03-13T20:23:57.295Z,2.93
2023-03-13T20:26:24.548Z,2.95
2023-03-13T20:28:53.179Z,4.57
2023-03-13T20:31:22.264Z,7.40
2023-03-13T20:35:19.310Z,4.45
2023-03-13T20:37:46.062Z,4.00
2023-03-13T20:40:13.401Z,4.47
2023-03-13T20:42:40.162Z,4.05
2023-03-13T20:45:08.568Z,3.90
2023-03-13T20:47:35.541Z,4.30
2023-03-13T20:50:02.335Z,3.72
2023-03-13T20:52:30.438Z,4.25
2023-03-13T20:54:57.191Z,4.97
2023-03-13T20:57:23.945Z,3.88
2023-03-13T20:59:50.675Z,3.67
2023-03-13T21:02:17.525Z,3.78
2023-03-13T21:04:44.376Z,3.92
2023-03-13T21:07:11.209Z,4.10
2023-03-13T21:09:39.321Z,2.85
2023-03-13T21:12:06.411Z,4.00
2023-03-13T21:14:33.176Z,3.63
2023-03-13T21:16:59.954Z,3.65
2023-03-13T21:19:26.730Z,3.55
2023-03-13T21:21:53.475Z,3.03
2023-03-13T21:24:20.261Z,3.38
2023-03-13T21:26:48.302Z,2.83
2023-03-13T21:29:15.055Z,3.43
2023-03-13T21:31:41.845Z,4.97
2023-03-13T21:34:08.611Z,3.33
2023-03-13T21:36:35.365Z,2.92
2023-03-13T21:39:02.314Z,3.83
2023-03-13T21:41:29.108Z,4.07
2023-03-13T21:44:59.286Z,3.20
2023-03-13T21:47:26.198Z,3.30
2023-03-13T21:49:54.069Z,3.85
2023-03-13T21:52:22.156Z,4.20
2023-03-13T21:55:29.432Z,3.60
2023-03-13T21:58:14.903Z,3.90
2023-03-13T22:01:00.484Z,3.53
2023-03-13T22:10:12.790Z,4.00
2023-03-13T22:12:39.579Z,4.40
2023-03-13T22:15:07.525Z,3.17
2023-03-13T22:17:34.311Z,3.08
2023-03-13T22:20:01.160Z,3.58
2023-03-13T22:22:27.867Z,4.00
2023-03-13T22:24:54.601Z,3.25
2023-03-13T22:27:22.729Z,2.97
2023-03-13T22:29:49.801Z,3.35
2023-03-13T22:32:16.582Z,3.50
2023-03-13T22:34:43.548Z,3.35
2023-03-13T22:37:10.423Z,3.25
2023-03-13T22:39:37.192Z,2.70
2023-03-13T22:42:04.323Z,3.40
2023-03-13T22:44:32.457Z,3.35
2023-03-13T22:46:59.279Z,3.13
2023-03-13T22:49:26.083Z,2.83
2023-03-13T22:51:52.840Z,3.03
2023-03-13T22:54:19.666Z,3.10
2023-03-13T22:56:46.445Z,3.08
2023-03-13T22:59:13.404Z,2.38
2023-03-13T23:01:41.559Z,3.63
2023-03-13T23:04:08.320Z,3.50
2023-03-13T23:06:35.034Z,2.67
2023-03-13T23:09:01.772Z,2.35
2023-03-13T23:11:28.497Z,3.00
2023-03-13T23:13:55.233Z,2.95
2023-03-13T23:16:21.996Z,2.55
2023-03-13T23:18:50.156Z,3.83
2023-03-13T23:21:17.575Z,2.63
2023-03-13T23:23:44.534Z,2.65
2023-03-13T23:26:13.901Z,2.83
2023-03-13T23:28:41.467Z,2.17
2023-03-13T23:31:09.776Z,2.50
2023-03-13T23:33:36.527Z,2.20
2023-03-13T23:36:07.447Z,2.28
2023-03-13T23:38:34.372Z,2.00
2023-03-13T23:41:05.667Z,2.20
2023-03-13T23:43:32.624Z,2.08
2023-03-13T23:45:59.417Z,2.20
2023-03-13T23:48:26.483Z,1.98
2023-03-13T23:50:53.232Z,2.13
2023-03-13T23:53:21.343Z,2.40
2023-03-13T23:55:48.320Z,2.00
2023-03-13T23:58:15.186Z,2.15
